Flight Track Log - Related Links

Times and Time Zones

All times are in EDT time to prevent confusion due to time zone crossing. See the AFL150 flight status page for this flight to view local times or setup timezone preferences in your user account.

Time Position Orientation Groundspeed Altitude Reporting Facility
EDT Latitude Longitude Course Direction KTS MPH feet Rate Location/Type
Fri 06:27:34 AM 55.9730 37.4290 344° North 110 127  Level FlightAware ADS-B
Fri 06:28:12 AM 55.9660 37.3810 255° West 165 190 1,600 2,591 Climbing FlightAware ADS-B
Fri 06:29:02 AM 55.9560 37.3170 254° West 161 185 3,800 2,274 Climbing FlightAware ADS-B
Fri 06:29:47 AM 55.9480 37.2550 257° West 187 215 5,200 1,545 Climbing FlightAware ADS-B
Fri 06:30:08 AM 55.9440 37.2230 257° West 204 235 5,500 684 Climbing FlightAware ADS-B
Fri 06:31:06 AM 55.9660 37.1290 293° West 245 282 6,100 1,176 Climbing FlightAware ADS-B
Fri 06:31:50 AM 55.9930 37.0460 300° West 260 299 7,500 2,211 Climbing FlightAware ADS-B
Fri 06:32:22 AM 56.0130 36.9860 301° West 269 310 8,900 2,417 Climbing FlightAware ADS-B
Fri 06:33:02 AM 56.0310 36.9020 291° West 285 328 10,400 2,100 Climbing FlightAware ADS-B
Fri 06:33:42 AM 56.0460 36.8050 286° West 317 365 11,700 2,500 Climbing FlightAware ADS-B
Fri 06:34:14 AM 56.0570 36.7200 283° West 333 383 13,400 3,083 Climbing FlightAware ADS-B
Fri 06:34:54 AM 56.0690 36.6110 281° West 351 404 15,400 3,158 Climbing FlightAware ADS-B
Fri 06:35:30 AM 56.0800 36.5070 281° West 360 414 17,400 3,195 Climbing FlightAware ADS-B
Fri 06:36:11 AM 56.0920 36.3870 280° West 364 419 19,500 3,000 Climbing FlightAware ADS-B
Fri 06:36:50 AM 56.1050 36.2690 281° West 373 429 21,400 2,692 Climbing FlightAware ADS-B
Fri 06:37:58 AM 56.1280 36.0620 281° West 384 442 24,300 2,365 Climbing FlightAware ADS-B
Fri 06:38:34 AM 56.1400 35.9460 281° West 391 450 25,500 1,895 Climbing FlightAware ADS-B
Fri 06:39:14 AM 56.1540 35.8190 281° West 391 450 26,700 1,833 Climbing FlightAware ADS-B
Fri 06:40:22 AM 56.1770 35.6000 281° West 408 470 28,800 1,563 Climbing FlightAware ADS-B
Fri 06:41:13 AM 56.1950 35.4280 281° West 421 484 29,800 1,500 Climbing FlightAware ADS-B
Fri 06:42:02 AM 56.2120 35.2590 280° West 407 468 31,300 2,242 Climbing FlightAware ADS-B
Fri 06:42:52 AM 56.2280 35.0950 280° West 393 452 33,500 1,705 Climbing FlightAware ADS-B
Fri 06:43:37 AM 56.2420 34.9530 280° West 387 445 34,000 333 Climbing FlightAware ADS-B
Fri 06:44:22 AM 56.2560 34.8130 280° West 383 441 34,000  Level FlightAware ADS-B
Fri 06:45:07 AM 56.2690 34.6700 279° West 385 443 34,000  Level FlightAware ADS-B
Fri 06:45:52 AM 56.2820 34.5320 280° West 388 447 34,000  Level FlightAware ADS-B
Fri 06:46:17 AM 56.2900 34.4500 280° West 389 448 34,000  Level FlightAware ADS-B
Fri 06:47:07 AM 56.3050 34.2890 280° West 391 450 34,000  Level FlightAware ADS-B
Fri 06:47:37 AM 56.3130 34.1920 278° West 392 451 34,000  Level FlightAware ADS-B
Fri 06:48:22 AM 56.3260 34.0500 279° West 392 451 34,000  Level FlightAware ADS-B
Fri 06:49:07 AM 56.3390 33.9040 279° West 391 450 34,000  Level FlightAware ADS-B
Fri 06:49:47 AM 56.3500 33.7750 279° West 391 450 34,000  Level FlightAware ADS-B
Fri 06:50:22 AM 56.3600 33.6620 279° West 391 450 34,000  Level FlightAware ADS-B
Fri 06:51:12 AM 56.3730 33.5020 278° West 389 448 34,000  Level FlightAware ADS-B
Fri 06:51:47 AM 56.3830 33.3900 279° West 389 448 34,000  Level FlightAware ADS-B
Fri 06:52:27 AM 56.3930 33.2620 278° West 389 448 34,000  Level FlightAware ADS-B
Fri 06:53:14 AM 56.4050 33.1220 279° West 388 447 34,000  Level FlightAware ADS-B
Fri 06:53:52 AM 56.4150 32.9920 278° West 387 445 34,000  Level FlightAware ADS-B
Fri 06:54:37 AM 56.4270 32.8480 279° West 385 443 34,000  Level FlightAware ADS-B
Fri 06:55:17 AM 56.4370 32.7200 278° West 386 444 34,000  Level FlightAware ADS-B
Fri 06:55:57 AM 56.4470 32.5920 278° West 386 444 34,000  Level FlightAware ADS-B
Fri 06:56:37 AM 56.4560 32.4650 277° West 385 443 34,000  Level FlightAware ADS-B
Fri 06:57:14 AM 56.4640 32.3550 278° West 385 443 34,000  Level FlightAware ADS-B
Fri 06:57:43 AM 56.4710 32.2620 278° West 386 444 34,000  Level FlightAware ADS-B
Fri 06:58:17 AM 56.4790 32.1610 278° West 386 444 34,000  Level FlightAware ADS-B
Fri 06:58:55 AM 56.4860 32.0580 277° West 386 444 34,000  Level FlightAware ADS-B
Fri 06:59:43 AM 56.4950 31.9270 277° West 386 444 34,000  Level FlightAware ADS-B
Fri 07:00:19 AM 56.5010 31.8280 276° West 386 444 34,000  Level FlightAware ADS-B
Fri 07:00:55 AM 56.5080 31.7300 277° West 386 444 34,000  Level FlightAware ADS-B
Fri 07:01:43 AM 56.5170 31.5990 277° West 386 444 34,000  Level FlightAware ADS-B
Fri 07:02:19 AM 56.5230 31.5010 276° West 386 444 34,000  Level FlightAware ADS-B
Fri 07:03:19 AM 56.5340 31.3370 277° West 386 444 34,000  Level FlightAware ADS-B
Fri 07:03:57 AM 56.5410 31.2330 277° West 386 444 34,000  Level FlightAware ADS-B
Fri 07:04:21 AM 56.5460 31.1670 278° West 386 444 34,000  Level FlightAware ADS-B
Fri 07:05:11 AM 56.6460 30.8750 302° West 654 753 34,000  Level FlightAware ADS-B
Fri 07:05:53 AM 56.6970 30.7650 310° West 405 466 34,000  Level FlightAware ADS-B
Fri 07:06:24 AM 56.7330 30.6780 307° West 400 460 34,000  Level FlightAware ADS-B
Fri 07:07:19 AM 56.7890 30.5290 304° West 400 460 34,000  Level FlightAware ADS-B
Fri 07:07:56 AM 56.8290 30.4230 305° West 400 460 34,000  Level FlightAware ADS-B
Fri 07:08:56 AM 56.8900 30.2570 304° West 401 461 34,000  Level FlightAware ADS-B
Fri 07:09:48 AM 56.9450 30.1060 304° West 401 461 34,000 124 Level FlightAware ADS-B
Fri 07:10:33 AM 56.9900 29.9830 304° West 402 463 34,200 435 Climbing FlightAware ADS-B
Fri 07:10:57 AM 57.0150 29.9150 304° West 402 463 34,500 706 Climbing FlightAware ADS-B
Fri 07:11:58 AM 57.0770 29.7430 304° West 396 456 35,200 679 Climbing FlightAware ADS-B
Fri 07:12:43 AM 57.1220 29.6160 303° West 391 450 35,700 593 Climbing FlightAware ADS-B
Fri 07:13:19 AM 57.1580 29.5160 304° West 384 442 36,000 237 Climbing FlightAware ADS-B
Fri 07:13:59 AM 57.1980 29.4030 303° West 390 449 36,000  Level FlightAware ADS-B
Fri 07:14:43 AM 57.2410 29.2810 303° West 394 453 36,000  Level FlightAware ADS-B
Fri 07:15:20 AM 57.2780 29.1780 304° West 394 453 36,000  Level FlightAware ADS-B
Fri 07:15:53 AM 57.3100 29.0860 303° West 394 453 36,000  Level FlightAware ADS-B
Fri 07:16:25 AM 57.3430 28.9930 303° West 394 453 36,000  Level FlightAware ADS-B
Fri 07:16:59 AM 57.3770 28.8950 303° West 396 456 36,000  Level FlightAware ADS-B
Fri 07:17:38 AM 57.4150 28.7840 302° West 397 457 36,000  Level FlightAware ADS-B
Fri 07:18:15 AM 57.4520 28.6790 303° West 397 457 36,000  Level FlightAware ADS-B
Fri 07:18:48 AM 57.4820 28.5900 302° West 398 458 36,000  Level FlightAware ADS-B
Fri 07:19:24 AM 57.5190 28.4830 303° West 399 459 36,000  Level FlightAware ADS-B
Fri 07:20:02 AM 57.5580 28.3700 303° West 398 458 36,000  Level FlightAware ADS-B
Fri 07:20:55 AM 57.6090 28.2180 302° West 398 458 36,000  Level FlightAware ADS-B
Fri 07:21:35 AM 57.6480 28.1030 302° West 398 458 36,000  Level FlightAware ADS-B
Fri 07:22:06 AM 57.6780 28.0130 302° West 398 458 36,000  Level FlightAware ADS-B
Fri 07:22:50 AM 57.7200 27.8880 302° West 394 453 36,000  Level FlightAware ADS-B
Fri 07:23:35 AM 57.7640 27.7560 302° West 391 450 36,000  Level FlightAware ADS-B
Fri 07:24:05 AM 57.7930 27.6700 302° West 390 449 36,000  Level FlightAware ADS-B
Fri 07:24:38 AM 57.8230 27.5770 301° West 389 448 36,000  Level FlightAware ADS-B
Fri 07:25:17 AM 57.8510 27.4580 294° West 382 440 36,000  Level FlightAware ADS-B
Fri 07:25:50 AM 57.8710 27.3600 291° West 382 440 36,000  Level FlightAware ADS-B
Fri 07:26:30 AM 57.8970 27.2290 291° West 382 440 36,000  Level FlightAware ADS-B
Fri 07:27:17 AM 57.9260 27.0840 291° West 383 441 36,000  Level FlightAware ADS-B
Fri 07:27:58 AM 57.9520 26.9560 291° West 383 441 36,000  Level FlightAware ADS-B
Fri 07:28:37 AM 57.9770 26.8340 291° West 384 442 36,000  Level FlightAware ADS-B
Fri 07:29:06 AM 57.9940 26.7460 290° West 385 443 36,000  Level FlightAware ADS-B
Fri 07:29:52 AM 58.0220 26.6060 291° West 386 444 36,000  Level FlightAware ADS-B
Fri 07:30:43 AM 58.0540 26.4390 290° West 387 445 36,000  Level FlightAware ADS-B
Fri 07:31:31 AM 58.0830 26.2890 290° West 388 447 36,000  Level FlightAware ADS-B
Fri 07:32:05 AM 58.1050 26.1770 290° West 389 448 36,000  Level FlightAware ADS-B
Fri 07:32:45 AM 58.1290 26.0520 290° West 388 447 36,000  Level FlightAware ADS-B
Fri 07:33:36 AM 58.1590 25.8900 289° West 387 445 36,000  Level FlightAware ADS-B
Fri 07:34:11 AM 58.1810 25.7760 290° West 387 445 36,000  Level FlightAware ADS-B
Fri 07:34:56 AM 58.2080 25.6330 290° West 386 444 36,000  Level FlightAware ADS-B
Fri 07:35:36 AM 58.2300 25.5100 289° West 384 442 36,000  Level FlightAware ADS-B
Fri 07:36:21 AM 58.2570 25.3640 289° West 384 442 36,000  Level FlightAware ADS-B
Fri 07:36:57 AM 58.2790 25.2490 290° West 382 440 36,000  Level FlightAware ADS-B
Fri 07:37:46 AM 58.3060 25.0970 289° West 379 436 36,000  Level FlightAware ADS-B
Fri 07:38:28 AM 58.3300 24.9620 289° West 378 435 36,000  Level FlightAware ADS-B
Fri 07:39:14 AM 58.3560 24.8200 289° West 377 434 36,000  Level FlightAware ADS-B
Fri 07:39:55 AM 58.3790 24.6900 289° West 377 434 36,000  Level FlightAware ADS-B
Fri 07:40:30 AM 58.3980 24.5830 289° West 376 433 36,000  Level FlightAware ADS-B
Fri 07:41:13 AM 58.4220 24.4440 288° West 376 433 36,000  Level FlightAware ADS-B
Fri 07:42:01 AM 58.4450 24.2940 286° West 374 430 36,000  Level FlightAware ADS-B
Fri 07:42:46 AM 58.4660 24.1510 286° West 372 428 36,000  Level FlightAware ADS-B
Fri 07:43:26 AM 58.4850 24.0270 286° West 371 427 36,000  Level FlightAware ADS-B
Fri 07:44:02 AM 58.5020 23.9140 286° West 371 427 36,000  Level FlightAware ADS-B
Fri 07:44:46 AM 58.5220 23.7740 285° West 371 427 36,000  Level FlightAware ADS-B
Fri 07:45:30 AM 58.5430 23.6380 287° West 371 427 36,000  Level FlightAware ADS-B
Fri 07:46:13 AM 58.5620 23.5020 285° West 369 425 36,000  Level FlightAware ADS-B
Fri 07:46:57 AM 58.5830 23.3630 286° West 368 423 36,000  Level FlightAware ADS-B
Fri 07:47:32 AM 58.5980 23.2530 285° West 368 423 36,000  Level FlightAware ADS-B
Fri 07:48:12 AM 58.6160 23.1260 285° West 369 425 36,000  Level FlightAware ADS-B
Fri 07:48:45 AM 58.6310 23.0220 286° West 370 426 36,000  Level FlightAware ADS-B
Fri 07:49:20 AM 58.6460 22.9120 285° West 370 426 36,000  Level FlightAware ADS-B
Fri 07:50:08 AM 58.6680 22.7610 286° West 372 428 36,000  Level FlightAware ADS-B
Fri 07:51:01 AM 58.6910 22.5880 284° West 374 430 36,000  Level FlightAware ADS-B
Fri 07:51:39 AM 58.7080 22.4670 285° West 375 432 36,000  Level FlightAware ADS-B
Fri 07:51:52 AM 58.7136 22.4242 284° West 372 428 36,000  Level FlightAware ADS-B
Fri 07:53:07 AM 58.7460 22.1870 285° West 377 434 36,000  Level FlightAware ADS-B
Fri 07:53:34 AM 58.7578 22.0949 284° West 378 435 36,000  Level FlightAware ADS-B
Fri 07:54:11 AM 58.7739 21.9731 284° West 377 434 36,000  Level FlightAware ADS-B
Fri 07:54:41 AM 58.7864 21.8771 284° West 379 436 36,000  Level FlightAware ADS-B
Fri 07:55:11 AM 58.8000 21.7760 285° West 380 437 36,000  Level FlightAware ADS-B
Fri 07:55:19 AM 58.8028 21.7513 282° West 378 435 36,000  Level FlightAware ADS-B
Fri 07:55:52 AM 58.8170 21.6424 284° West 378 435 36,000  Level FlightAware ADS-B
Fri 07:56:24 AM 58.8302 21.5385 284° West 379 436 36,000  Level FlightAware ADS-B
Fri 07:57:04 AM 58.8469 21.4071 284° West 379 436 36,000  Level FlightAware ADS-B
Fri 07:57:43 AM 58.8631 21.2787 284° West 379 436 36,000  Level FlightAware ADS-B
Fri 07:58:24 AM 58.8799 21.1441 284° West 378 435 36,000  Level FlightAware ADS-B
Fri 07:59:03 AM 58.8963 21.0151 284° West 378 435 36,000  Level FlightAware ADS-B
Fri 07:59:34 AM 58.9136 20.9173 289° West 380 437 36,000  Level FlightAware ADS-B
Fri 08:00:04 AM 58.9358 20.8206 294° West 384 442 36,000  Level FlightAware ADS-B
Fri 08:00:43 AM 58.9648 20.6984 295° West 383 441 36,000  Level FlightAware ADS-B
Fri 08:01:23 AM 58.9843 20.5700 286° West 380 437 36,000  Level FlightAware ADS-B
Fri 08:01:54 AM 58.9996 20.4684 286° West 381 438 36,000  Level FlightAware ADS-B
Fri 08:02:24 AM 59.0155 20.3708 288° West 382 440 36,000  Level FlightAware ADS-B
Fri 08:03:03 AM 59.0365 20.2443 288° West 381 438 36,000  Level FlightAware ADS-B
Fri 08:03:34 AM 59.0532 20.1434 288° West 383 441 36,000  Level FlightAware ADS-B
Fri 08:04:04 AM 59.0689 20.0464 288° West 384 442 36,000  Level FlightAware ADS-B
Fri 08:04:34 AM 59.0847 19.9484 287° West 386 444 36,000  Level FlightAware ADS-B
Fri 08:05:23 AM 59.1106 19.7837 287° West 384 442 36,000  Level FlightAware ADS-B
Fri 08:05:54 AM 59.1263 19.6829 287° West 384 442 36,000  Level FlightAware ADS-B
Fri 08:06:24 AM 59.1415 19.5852 287° West 385 443 36,000  Level FlightAware ADS-B
Fri 08:06:54 AM 59.1570 19.4858 287° West 384 442 36,000  Level FlightAware ADS-B
Fri 08:07:30 AM 59.1750 19.3670 287° West 386 444 36,000  Level FlightAware ADS-B
Fri 08:07:33 AM 59.1770 19.3533 286° West 385 443 36,000  Level FlightAware ADS-B
Fri 08:08:04 AM 59.1923 19.2513 286° West 385 443 36,000  Level FlightAware ADS-B
Fri 08:08:44 AM 59.2119 19.1189 286° West 385 443 36,000  Level FlightAware ADS-B
Fri 08:09:14 AM 59.2269 19.0177 286° West 386 444 36,000  Level FlightAware ADS-B
Fri 08:09:44 AM 59.2418 18.9163 286° West 387 445 36,000  Level FlightAware ADS-B
Fri 08:10:15 AM 59.2569 18.8134 286° West 387 445 36,000  Level FlightAware ADS-B
Fri 08:10:45 AM 59.2718 18.7109 286° West 388 447 36,000  Level FlightAware ADS-B
Fri 08:11:24 AM 59.2910 18.5783 286° West 390 449 36,000  Level FlightAware ADS-B
Fri 08:11:55 AM 59.3059 18.4730 286° West 392 451 36,000  Level FlightAware ADS-B
Fri 08:12:25 AM 59.3204 18.3715 286° West 393 452 36,000  Level FlightAware ADS-B
Fri 08:12:55 AM 59.3350 18.2681 286° West 395 455 36,000  Level FlightAware ADS-B
Fri 08:13:34 AM 59.3540 18.1327 285° West 397 457 36,000  Level FlightAware ADS-B
Fri 08:14:05 AM 59.3693 18.0233 285° West 399 459 36,000  Level FlightAware ADS-B
Fri 08:14:44 AM 59.3880 17.8876 285° West 400 460 36,000  Level FlightAware ADS-B
Fri 08:15:24 AM 59.4073 17.7470 285° West 399 459 36,000  Level FlightAware ADS-B
Fri 08:15:54 AM 59.4214 17.6428 285° West 399 459 36,000  Level FlightAware ADS-B
Fri 08:16:25 AM 59.4359 17.5350 285° West 400 460 36,000  Level FlightAware ADS-B
Fri 08:16:55 AM 59.4503 17.4273 285° West 399 459 36,000  Level FlightAware ADS-B
Fri 08:17:27 AM 59.4651 17.3168 285° West 399 459 36,000  Level FlightAware ADS-B
Fri 08:18:05 AM 59.4826 17.1833 285° West 399 459 36,000  Level FlightAware ADS-B
Fri 08:18:45 AM 59.5007 17.0453 285° West 400 460 36,000  Level FlightAware ADS-B
Fri 08:19:15 AM 59.5147 16.9379 284° West 400 460 36,000  Level FlightAware ADS-B
Fri 08:19:54 AM 59.5323 16.7998 284° West 401 461 36,000  Level FlightAware ADS-B
Fri 08:20:25 AM 59.5462 16.6919 284° West 401 461 36,000  Level FlightAware ADS-B
Fri 08:20:55 AM 59.5594 16.5874 284° West 401 461 36,000  Level FlightAware ADS-B
Fri 08:21:25 AM 59.5729 16.4799 284° West 401 461 36,000  Level FlightAware ADS-B
Fri 08:22:04 AM 59.5901 16.3427 284° West 400 460 36,000  Level FlightAware ADS-B
Fri 08:22:45 AM 59.6081 16.1970 284° West 398 458 36,000  Level FlightAware ADS-B
Fri 08:23:24 AM 59.6249 16.0589 284° West 399 459 36,000  Level FlightAware ADS-B
Fri 08:24:02 AM 59.6413 15.9235 284° West 399 459 36,000  Level FlightAware ADS-B
Fri 08:24:41 AM 59.6578 15.7865 283° West 399 459 36,000  Level FlightAware ADS-B
Fri 08:25:44 AM 59.6843 15.5624 283° West 398 458 36,000  Level FlightAware ADS-B
Fri 08:26:28 AM 59.7020 15.4130 283° West 399 459 36,000  Level FlightAware ADS-B
Fri 08:27:20 AM 59.7230 15.2270 283° West 399 459 36,000  Level FlightAware ADS-B
Fri 08:28:11 AM 59.7450 15.0400 283° West 397 457 36,000  Level FlightAware ADS-B
Fri 08:29:01 AM 59.7640 14.8630 282° West 398 458 36,000  Level FlightAware ADS-B
Fri 08:29:49 AM 59.7830 14.6960 283° West 398 458 36,000 -289 Level FlightAware ADS-B
Fri 08:30:24 AM 59.7970 14.5720 283° West 390 449 35,600 -868 Descending FlightAware ADS-B
Fri 08:31:05 AM 59.8120 14.4290 282° West 381 438 34,900 -930 Descending FlightAware ADS-B
Fri 08:31:35 AM 59.8230 14.3300 283° West 371 427 34,500 -952 Descending FlightAware ADS-B
Fri 08:32:08 AM 59.8340 14.2210 281° West 367 422 33,900 -1,135 Descending FlightAware ADS-B
Fri 08:32:49 AM 59.8490 14.0880 283° West 356 410 33,100 -1,575 Descending FlightAware ADS-B
Fri 08:33:28 AM 59.8620 13.9630 282° West 350 403 31,800 -1,935 Descending FlightAware ADS-B
Fri 08:34:22 AM 59.8790 13.7950 281° West 340 391 30,100 -1,851 Descending FlightAware ADS-B
Fri 08:35:02 AM 59.8910 13.6770 282° West 332 382 28,900 -1,841 Descending FlightAware ADS-B
Fri 08:35:50 AM 59.9050 13.5360 281° West 322 371 27,400 -1,841 Descending FlightAware ADS-B
Fri 08:36:30 AM 59.9220 13.4190 286° West 322 371 26,200 -1,425 Descending FlightAware ADS-B
Fri 08:37:10 AM 59.9390 13.3100 287° West 317 365 25,500 -1,643 Descending FlightAware ADS-B
Fri 08:37:54 AM 59.9570 13.1850 286° West 320 368 23,900 -2,104 Descending FlightAware ADS-B
Fri 08:38:27 AM 59.9700 13.0950 286° West 321 369 22,800 -2,132 Descending FlightAware ADS-B
Fri 08:39:10 AM 59.9880 12.9690 286° West 321 369 21,200 -2,195 Descending FlightAware ADS-B
Fri 08:39:49 AM 60.0050 12.8560 287° West 322 371 19,800 -1,977 Descending FlightAware ADS-B
Fri 08:40:38 AM 60.0240 12.7220 286° West 321 369 18,300 -1,846 Descending FlightAware ADS-B
Fri 08:41:20 AM 60.0410 12.5990 286° West 319 367 17,000 -1,920 Descending FlightAware ADS-B
Fri 08:41:53 AM 60.0550 12.5030 286° West 316 364 15,900 -1,846 Descending FlightAware ADS-B
Fri 08:42:25 AM 60.0680 12.4110 286° West 314 361 15,000 -1,701 Descending FlightAware ADS-B
Fri 08:43:00 AM 60.0820 12.3140 286° West 314 361 14,000 -1,694 Descending FlightAware ADS-B
Fri 08:43:50 AM 60.1200 12.2030 305° West 316 364 12,600 -1,571 Descending FlightAware ADS-B
Fri 08:44:24 AM 60.1600 12.1330 319° Northwest 304 350 11,800 -1,263 Descending FlightAware ADS-B
Fri 08:45:06 AM 60.2030 12.0590 319° Northwest 287 330 11,000 -923 Descending FlightAware ADS-B
Fri 08:45:42 AM 60.2360 12.0010 319° Northwest 266 306 10,600 -627 Descending FlightAware ADS-B
Fri 08:46:13 AM 60.2710 11.9670 334° Northwest 263 303 10,300 -450 Descending FlightAware ADS-B
Fri 08:47:02 AM 60.3270 12.0030 18° North 265 305 10,000 -214 Descending FlightAware ADS-B
Fri 08:47:37 AM 60.3680 12.0270 16° North 259 298 10,000  Level FlightAware ADS-B
Fri 08:48:26 AM 60.4120 11.9720 328° Northwest 231 266 10,000 -250 Level FlightAware ADS-B
Fri 08:49:13 AM 60.4170 11.8800 276° West 222 255 9,600 -988 Descending FlightAware ADS-B
Fri 08:49:51 AM 60.4180 11.7940 271° West 225 259 8,600 -1,390 Descending FlightAware ADS-B
Fri 08:50:35 AM 60.4200 11.7010 273° West 225 259 7,700 -847 Descending FlightAware ADS-B
Fri 08:51:16 AM 60.4230 11.6160 274° West 227 261 7,400 -659 Descending FlightAware ADS-B
Fri 08:51:57 AM 60.4260 11.5270 274° West 226 260 6,800 -857 Descending FlightAware ADS-B
Fri 08:52:40 AM 60.4270 11.4370 271° West 226 260 6,200 -750 Descending FlightAware ADS-B
Fri 08:53:25 AM 60.4290 11.3420 272° West 217 250 5,700 -828 Descending FlightAware ADS-B
Fri 08:54:07 AM 60.4200 11.2680 256° West 209 241 5,000 -750 Descending FlightAware ADS-B
Fri 08:54:45 AM 60.4010 11.2070 238° Southwest 182 209 4,700 -500 Descending FlightAware ADS-B
Fri 08:55:19 AM 60.3750 11.1850 203° Southwest 182 209 4,400 -615 Descending FlightAware ADS-B
Fri 08:56:03 AM 60.3430 11.1660 196° South 163 188 3,900 -789 Descending FlightAware ADS-B
Fri 08:56:35 AM 60.3210 11.1520 197° South 162 186 3,400 -951 Descending FlightAware ADS-B
Fri 08:57:25 AM 60.2840 11.1310 196° South 154 177 2,600 -875 Descending FlightAware ADS-B
Fri 08:58:11 AM 60.2580 11.1160 196° South 138 159 2,000 -759 Descending FlightAware ADS-B
Fri 08:58:52 AM 60.2310 11.1000 196° South 139 160 1,500 -732 Descending FlightAware ADS-B
Fri 08:59:32 AM 60.2070 11.0870 195° South 115 132 -2,250 Descending FlightAware ADS-B
Fri 09:06:00 AM 60.2632 10.5234 285° West  Level Estimated
Fri 09:07:00 AM 60.2908 10.3033 284° West  Level Estimated
Fri 09:08:00 AM 60.3181 10.0828 284° West  Level Estimated
Fri 09:09:00 AM 60.3451 9.8620 284° West  Level Estimated
Fri 09:10:00 AM 60.3716 9.6408 284° West  Level Estimated
Fri 09:11:00 AM 60.3978 9.4192 284° West  Level Estimated
Fri 09:12:00 AM 60.4236 9.1973 283° West  Level Estimated
Fri 09:13:00 AM 60.4491 8.9750 283° West  Level Estimated
Fri 09:14:00 AM 60.4742 8.7524 283° West  Level Estimated
Fri 09:15:00 AM 60.4989 8.5295 283° West  Level Estimated
Fri 09:16:00 AM 60.5232 8.3062 283° West  Level Estimated
Fri 09:17:00 AM 60.5472 8.0825 282° West  Level Estimated
Fri 09:18:00 AM 60.5708 7.8586 282° West  Level Estimated
Fri 09:19:00 AM 60.5940 7.6343 282° West  Level Estimated
Fri 09:20:00 AM 60.6168 7.4097 282° West  Level Estimated
Fri 09:21:00 AM 60.6393 7.1848 282° West  Level Estimated
Fri 09:22:00 AM 60.6614 6.9595 281° West  Level Estimated
Fri 09:23:00 AM 60.6831 6.7340 281° West  Level Estimated
Fri 09:24:00 AM 60.7044 6.5082 281° West  Level Estimated
Fri 09:25:00 AM 60.7254 6.2820 281° West  Level Estimated
Fri 09:26:00 AM 60.7459 6.0556 281° West  Level Estimated
Fri 09:27:00 AM 60.7661 5.8289 280° West  Level Estimated
Fri 09:28:00 AM 60.7859 5.6019 280° West  Level Estimated
Fri 09:29:00 AM 60.8053 5.3746 280° West  Level Estimated
Fri 09:30:00 AM 60.8244 5.1470 280° West  Level Estimated
Fri 09:31:00 AM 60.8430 4.9192 280° West  Level Estimated
Fri 09:32:00 AM 60.8613 4.6912 279° West  Level Estimated
Fri 09:33:00 AM 60.8792 4.4628 279° West  Level Estimated
Fri 09:34:00 AM 60.8966 4.2342 279° West  Level Estimated
Fri 09:35:00 AM 60.9137 4.0054 279° West  Level Estimated
Fri 09:36:00 AM 60.9305 3.7763 279° West  Level Estimated
Fri 09:37:00 AM 60.9468 3.5470 278° West  Level Estimated
Fri 09:38:00 AM 60.9627 3.3174 278° West  Level Estimated
Fri 09:39:00 AM 60.9782 3.0877 278° West  Level Estimated
Fri 09:40:00 AM 60.9934 2.8577 278° West  Level Estimated
Fri 09:41:00 AM 61.0081 2.6274 278° West  Level Estimated
Fri 09:42:00 AM 61.0225 2.3970 277° West  Level Estimated
Fri 09:43:00 AM 61.0365 2.1664 277° West  Level Estimated
Fri 09:44:00 AM 61.0501 1.9355 277° West  Level Estimated
Fri 09:45:00 AM 61.0633 1.7045 277° West  Level Estimated
Fri 09:46:00 AM 61.0760 1.4733 277° West  Level Estimated
Fri 09:47:00 AM 61.0884 1.2419 276° West  Level Estimated
Fri 09:48:00 AM 61.1004 1.0103 276° West  Level Estimated
Fri 09:49:00 AM 61.1120 0.7785 276° West  Level Estimated
Fri 09:50:00 AM 61.1232 0.5466 276° West  Level Estimated
Fri 09:51:00 AM 61.1340 0.3145 276° West  Level Estimated
Fri 09:52:00 AM 61.1445 0.0823 275° West  Level Estimated
Fri 09:53:00 AM 61.1545 -0.1501 275° West  Level Estimated
Fri 09:54:00 AM 61.1641 -0.3826 275° West  Level Estimated
Fri 09:55:00 AM 61.1733 -0.6153 275° West  Level Estimated
Fri 09:56:00 AM 61.1821 -0.8481 275° West  Level Estimated
Fri 09:57:00 AM 61.1905 -1.0811 274° West  Level Estimated
Fri 09:58:00 AM 61.1986 -1.3141 274° West  Level Estimated
Fri 09:59:00 AM 61.2062 -1.5473 274° West  Level Estimated
Fri 10:00:00 AM 61.2134 -1.7806 274° West  Level Estimated
Fri 10:01:00 AM 61.2202 -2.0140 274° West  Level Estimated
Fri 10:02:00 AM 61.2266 -2.2474 273° West  Level Estimated
Fri 10:03:00 AM 61.2326 -2.4810 273° West  Level Estimated
Fri 10:04:00 AM 61.2382 -2.7147 273° West  Level Estimated
Fri 10:05:00 AM 61.2434 -2.9484 273° West  Level Estimated
Fri 10:06:00 AM 61.2482 -3.1822 273° West  Level Estimated
Fri 10:07:00 AM 61.2526 -3.4161 272° West  Level Estimated
Fri 10:08:00 AM 61.2566 -3.6501 272° West  Level Estimated
Fri 10:09:00 AM 61.2602 -3.8841 272° West  Level Estimated
Fri 10:10:00 AM 61.2634 -4.1181 272° West  Level Estimated
Fri 10:11:00 AM 61.2662 -4.3522 272° West  Level Estimated
Fri 10:12:00 AM 61.2686 -4.5864 271° West  Level Estimated
Fri 10:13:00 AM 61.2706 -4.8205 271° West  Level Estimated
Fri 10:14:00 AM 61.2721 -5.0547 271° West  Level Estimated
Fri 10:15:00 AM 61.2733 -5.2890 271° West  Level Estimated
Fri 10:16:00 AM 61.2741 -5.5232 270° West  Level Estimated
Fri 10:17:00 AM 61.2745 -5.7574 270° West  Level Estimated
Fri 10:18:00 AM 61.2744 -5.9917 270° West  Level Estimated
Fri 10:19:00 AM 61.2740 -6.2259 270° West  Level Estimated
Fri 10:20:00 AM 61.2732 -6.4601 270° West  Level Estimated
Fri 10:21:00 AM 61.2719 -6.6944 269° West  Level Estimated
Fri 10:22:00 AM 61.2703 -6.9285 269° West  Level Estimated
Fri 10:23:00 AM 61.2682 -7.1627 269° West  Level Estimated
Fri 10:24:00 AM 61.2658 -7.3969 269° West  Level Estimated
Fri 10:25:00 AM 61.2629 -7.6309 269° West  Level Estimated
Fri 10:26:00 AM 61.2596 -7.8650 268° West  Level Estimated
Fri 10:27:00 AM 61.2560 -8.0990 268° West  Level Estimated
Fri 10:28:00 AM 61.2519 -8.3329 268° West  Level Estimated
Fri 10:29:00 AM 61.2474 -8.5668 268° West  Level Estimated
Fri 10:30:00 AM 61.2425 -8.8006 268° West  Level Estimated
Fri 10:31:00 AM 61.2373 -9.0343 267° West  Level Estimated
Fri 10:32:00 AM 61.2316 -9.2680 267° West  Level Estimated
Fri 10:33:00 AM 61.2255 -9.5015 267° West  Level Estimated
Fri 10:34:00 AM 61.2190 -9.7350 267° West  Level Estimated
Fri 10:35:00 AM 61.2122 -9.9684 267° West  Level Estimated
Fri 10:36:00 AM 61.2049 -10.2016 266° West  Level Estimated
Fri 10:37:00 AM 61.1972 -10.4348 266° West  Level Estimated
Fri 10:38:00 AM 61.1891 -10.6678 266° West  Level Estimated
Fri 10:39:00 AM 61.1806 -10.9007 266° West  Level Estimated
Fri 10:40:00 AM 61.1717 -11.1335 266° West  Level Estimated
Fri 10:41:00 AM 61.1625 -11.3662 265° West  Level Estimated
Fri 10:42:00 AM 61.1528 -11.5987 265° West  Level Estimated
Fri 10:43:00 AM 61.1427 -11.8311 265° West  Level Estimated
Fri 10:44:00 AM 61.1322 -12.0633 265° West  Level Estimated
Fri 10:45:00 AM 61.1213 -12.2953 265° West  Level Estimated
Fri 10:46:00 AM 61.1101 -12.5272 264° West  Level Estimated
Fri 10:47:00 AM 61.0984 -12.7590 264° West  Level Estimated
Fri 10:48:00 AM 61.0863 -12.9905 264° West  Level Estimated
Fri 10:49:00 AM 61.0739 -13.2219 264° West  Level Estimated
Fri 10:50:00 AM 61.0610 -13.4531 264° West  Level Estimated
Fri 10:51:00 AM 61.0478 -13.6841 263° West  Level Estimated
Fri 10:52:00 AM 61.0341 -13.9149 263° West  Level Estimated
Fri 10:53:00 AM 61.0201 -14.1455 263° West  Level Estimated
Fri 10:54:00 AM 61.0056 -14.3758 263° West  Level Estimated
Fri 10:55:00 AM 60.9908 -14.6060 263° West  Level Estimated
Fri 10:56:00 AM 60.9756 -14.8360 262° West  Level Estimated
Fri 10:57:00 AM 60.9600 -15.0657 262° West  Level Estimated
Fri 10:58:00 AM 60.9440 -15.2952 262° West  Level Estimated
Fri 10:59:00 AM 60.9276 -15.5245 262° West  Level Estimated
Fri 11:00:00 AM 60.9108 -15.7536 262° West  Level Estimated
Fri 11:01:00 AM 60.8937 -15.9824 261° West  Level Estimated
Fri 11:02:00 AM 60.8761 -16.2109 261° West  Level Estimated
Fri 11:03:00 AM 60.8582 -16.4392 261° West  Level Estimated
Fri 11:04:00 AM 60.8398 -16.6672 261° West  Level Estimated
Fri 11:05:00 AM 60.8211 -16.8950 261° West  Level Estimated
Fri 11:06:00 AM 60.8020 -17.1225 260° West  Level Estimated
Fri 11:07:00 AM 60.7825 -17.3497 260° West  Level Estimated
Fri 11:08:00 AM 60.7627 -17.5767 260° West  Level Estimated
Fri 11:09:00 AM 60.7424 -17.8034 260° West  Level Estimated
Fri 11:10:00 AM 60.7218 -18.0297 260° West  Level Estimated
Fri 11:11:00 AM 60.7008 -18.2558 259° West  Level Estimated
Fri 11:12:00 AM 60.6794 -18.4816 259° West  Level Estimated
Fri 11:13:00 AM 60.6576 -18.7071 259° West  Level Estimated
Fri 11:14:00 AM 60.6355 -18.9323 259° West  Level Estimated
Fri 11:15:00 AM 60.6129 -19.1571 259° West  Level Estimated
Fri 11:16:00 AM 60.5900 -19.3817 258° West  Level Estimated
Fri 11:17:00 AM 60.5668 -19.6059 258° West  Level Estimated
Fri 11:18:00 AM 60.5431 -19.8298 258° West  Level Estimated
Fri 11:19:00 AM 60.5191 -20.0534 258° West  Level Estimated
Fri 11:20:00 AM 60.4947 -20.2766 258° West  Level Estimated
Fri 11:21:00 AM 60.4699 -20.4995 257° West  Level Estimated
Fri 11:22:00 AM 60.4447 -20.7221 257° West  Level Estimated
Fri 11:23:00 AM 60.4192 -20.9443 257° West  Level Estimated
Fri 11:24:00 AM 60.3933 -21.1661 257° West  Level Estimated
Fri 11:25:00 AM 60.3671 -21.3876 257° West  Level Estimated
Fri 11:26:00 AM 60.3405 -21.6088 256° West  Level Estimated
Fri 11:27:00 AM 60.3135 -21.8296 256° West  Level Estimated
Fri 11:28:00 AM 60.2861 -22.0500 256° West  Level Estimated
Fri 11:29:00 AM 60.2584 -22.2700 256° West  Level Estimated
Fri 11:30:00 AM 60.2303 -22.4897 256° West  Level Estimated
Fri 11:31:00 AM 60.2019 -22.7090 255° West  Level Estimated
Fri 11:32:00 AM 60.1731 -22.9279 255° West  Level Estimated
Fri 11:33:00 AM 60.1439 -23.1464 255° West  Level Estimated
Fri 11:34:00 AM 60.1144 -23.3646 255° West  Level Estimated
Fri 11:35:00 AM 60.0845 -23.5823 255° West  Level Estimated
Fri 11:36:00 AM 60.0543 -23.7996 255° West  Level Estimated
Fri 11:37:00 AM 60.0237 -24.0166 254° West  Level Estimated
Fri 11:38:00 AM 59.9927 -24.2331 254° West  Level Estimated
Fri 11:39:00 AM 59.9614 -24.4492 254° West  Level Estimated
Fri 11:40:00 AM 59.9297 -24.6650 254° West  Level Estimated
Fri 11:41:00 AM 59.8977 -24.8803 254° West  Level Estimated
Fri 11:42:00 AM 59.8654 -25.0952 253° West  Level Estimated
Fri 11:43:00 AM 59.8327 -25.3096 253° West  Level Estimated
Fri 11:44:00 AM 59.7996 -25.5237 253° West  Level Estimated
Fri 11:45:00 AM 59.7662 -25.7373 253° West  Level Estimated
Fri 11:46:00 AM 59.7325 -25.9505 253° West  Level Estimated
Fri 11:47:00 AM 59.6984 -26.1633 252° West  Level Estimated
Fri 11:48:00 AM 59.6639 -26.3756 252° West  Level Estimated
Fri 11:49:00 AM 59.6292 -26.5875 252° West  Level Estimated
Fri 11:50:00 AM 59.5940 -26.7989 252° West  Level Estimated
Fri 11:51:00 AM 59.5586 -27.0099 252° West  Level Estimated
Fri 11:52:00 AM 59.5228 -27.2205 252° West  Level Estimated
Fri 11:53:00 AM 59.4866 -27.4306 251° West  Level Estimated
Fri 11:54:00 AM 59.4502 -27.6403 251° West  Level Estimated
Fri 11:55:00 AM 59.4133 -27.8495 251° West  Level Estimated
Fri 11:56:00 AM 59.3762 -28.0582 251° West  Level Estimated
Fri 11:57:00 AM 59.3387 -28.2665 251° West  Level Estimated
Fri 11:58:00 AM 59.3009 -28.4743 250° West  Level Estimated
Fri 11:59:00 AM 59.2628 -28.6817 250° West  Level Estimated
Fri 12:00:00 PM 59.2243 -28.8886 250° West  Level Estimated
Fri 12:01:00 PM 59.1855 -29.0950 250° West  Level Estimated
Fri 12:02:00 PM 59.1464 -29.3010 250° West  Level Estimated
Fri 12:03:00 PM 59.1070 -29.5065 250° West  Level Estimated
Fri 12:04:00 PM 59.0672 -29.7115 249° West  Level Estimated
Fri 12:05:00 PM 59.0271 -29.9160 249° West  Level Estimated
Fri 12:06:00 PM 58.9867 -30.1201 249° West  Level Estimated
Fri 12:07:00 PM 58.9460 -30.3237 249° West  Level Estimated
Fri 12:08:00 PM 58.9049 -30.5268 249° West  Level Estimated
Fri 12:09:00 PM 58.8635 -30.7294 249° West  Level Estimated
Fri 12:10:00 PM 58.8219 -30.9315 248° West  Level Estimated
Fri 12:11:00 PM 58.7799 -31.1331 248° West  Level Estimated
Fri 12:12:00 PM 58.7375 -31.3343 248° West  Level Estimated
Fri 12:13:00 PM 58.6949 -31.5350 248° West  Level Estimated
Fri 12:14:00 PM 58.6520 -31.7351 248° West  Level Estimated
Fri 12:15:00 PM 58.6087 -31.9348 247° West  Level Estimated
Fri 12:16:00 PM 58.5652 -32.1340 247° West  Level Estimated
Fri 12:17:00 PM 58.5213 -32.3327 247° West  Level Estimated
Fri 12:18:00 PM 58.4771 -32.5308 247° West  Level Estimated
Fri 12:19:00 PM 58.4327 -32.7285 247° West  Level Estimated
Fri 12:20:00 PM 58.3879 -32.9257 247° West  Level Estimated
Fri 12:21:00 PM 58.3428 -33.1224 246° West  Level Estimated
Fri 12:22:00 PM 58.2974 -33.3186 246° West  Level Estimated
Fri 12:23:00 PM 58.2517 -33.5143 246° West  Level Estimated
Fri 12:24:00 PM 58.2058 -33.7094 246° West  Level Estimated
Fri 12:25:00 PM 58.1595 -33.9041 246° West  Level Estimated
Fri 12:26:00 PM 58.1129 -34.0983 246° West  Level Estimated
Fri 12:27:00 PM 58.0660 -34.2919 245° Southwest  Level Estimated
Fri 12:28:00 PM 58.0189 -34.4851 245° Southwest  Level Estimated
Fri 12:29:00 PM 57.9714 -34.6777 245° Southwest  Level Estimated
Fri 12:30:00 PM 57.9237 -34.8698 245° Southwest  Level Estimated
Fri 12:31:00 PM 57.8757 -35.0614 245° Southwest  Level Estimated
Fri 12:32:00 PM 57.8273 -35.2525 245° Southwest  Level Estimated
Fri 12:33:00 PM 57.7787 -35.4431 245° Southwest  Level Estimated
Fri 12:34:00 PM 57.7298 -35.6332 244° Southwest  Level Estimated
Fri 12:35:00 PM 57.6807 -35.8227 244° Southwest  Level Estimated
Fri 12:36:00 PM 57.6312 -36.0118 244° Southwest  Level Estimated
Fri 12:37:00 PM 57.5815 -36.2003 244° Southwest  Level Estimated
Fri 12:38:00 PM 57.5314 -36.3883 244° Southwest  Level Estimated
Fri 12:39:00 PM 57.4812 -36.5758 244° Southwest  Level Estimated
Fri 12:40:00 PM 57.4306 -36.7627 243° Southwest  Level Estimated
Fri 12:41:00 PM 57.3797 -36.9492 243° Southwest  Level Estimated
Fri 12:42:00 PM 57.3286 -37.1352 243° Southwest  Level Estimated
Fri 12:43:00 PM 57.2772 -37.3206 243° Southwest  Level Estimated
Fri 12:44:00 PM 57.2255 -37.5055 243° Southwest  Level Estimated
Fri 12:45:00 PM 57.1736 -37.6898 243° Southwest  Level Estimated
Fri 12:46:00 PM 57.1214 -37.8737 242° Southwest  Level Estimated
Fri 12:47:00 PM 57.0689 -38.0571 242° Southwest  Level Estimated
Fri 12:48:00 PM 57.0162 -38.2399 242° Southwest  Level Estimated
Fri 12:49:00 PM 56.9632 -38.4222 242° Southwest  Level Estimated
Fri 12:50:00 PM 56.9099 -38.6040 242° Southwest  Level Estimated
Fri 12:51:00 PM 56.8563 -38.7853 242° Southwest  Level Estimated
Fri 12:52:00 PM 56.8025 -38.9660 242° Southwest  Level Estimated
Fri 12:53:00 PM 56.7485 -39.1462 241° Southwest  Level Estimated
Fri 12:54:00 PM 56.6941 -39.3260 241° Southwest  Level Estimated
Fri 12:55:00 PM 56.6396 -39.5051 241° Southwest  Level Estimated
Fri 12:56:00 PM 56.5847 -39.6838 241° Southwest  Level Estimated
Fri 12:57:00 PM 56.5296 -39.8620 241° Southwest  Level Estimated
Fri 12:58:00 PM 56.4743 -40.0396 241° Southwest  Level Estimated
Fri 12:59:00 PM 56.4187 -40.2167 240° Southwest  Level Estimated
Fri 01:00:00 PM 56.3629 -40.3933 240° Southwest  Level Estimated
Fri 01:01:00 PM 56.3068 -40.5694 240° Southwest  Level Estimated
Fri 01:02:00 PM 56.2504 -40.7449 240° Southwest  Level Estimated
Fri 01:03:00 PM 56.1938 -40.9200 240° Southwest  Level Estimated
Fri 01:04:00 PM 56.1370 -41.0945 240° Southwest  Level Estimated
Fri 01:05:00 PM 56.0799 -41.2685 240° Southwest  Level Estimated
Fri 01:06:00 PM 56.0225 -41.4420 239° Southwest  Level Estimated
Fri 01:07:00 PM 55.9650 -41.6150 239° Southwest  Level Estimated
Fri 01:08:00 PM 55.9072 -41.7875 239° Southwest  Level Estimated
Fri 01:09:00 PM 55.8491 -41.9594 239° Southwest  Level Estimated
Fri 01:10:00 PM 55.7908 -42.1309 239° Southwest  Level Estimated
Fri 01:11:00 PM 55.7323 -42.3018 239° Southwest  Level Estimated
Fri 01:12:00 PM 55.6735 -42.4722 239° Southwest  Level Estimated
Fri 01:13:00 PM 55.6145 -42.6421 238° Southwest  Level Estimated
Fri 01:14:00 PM 55.5552 -42.8115 238° Southwest  Level Estimated
Fri 01:15:00 PM 55.4958 -42.9804 238° Southwest  Level Estimated
Fri 01:16:00 PM 55.4361 -43.1488 238° Southwest  Level Estimated
Fri 01:17:00 PM 55.3761 -43.3166 238° Southwest  Level Estimated
Fri 01:18:00 PM 55.3160 -43.4840 238° Southwest  Level Estimated
Fri 01:19:00 PM 55.2556 -43.6508 238° Southwest  Level Estimated
Fri 01:20:00 PM 55.1950 -43.8171 237° Southwest  Level Estimated
Fri 01:21:00 PM 55.1341 -43.9830 237° Southwest  Level Estimated
Fri 01:22:00 PM 55.0731 -44.1483 237° Southwest  Level Estimated
Fri 01:23:00 PM 55.0118 -44.3131 237° Southwest  Level Estimated
Fri 01:24:00 PM 54.9503 -44.4774 237° Southwest  Level Estimated
Fri 01:25:00 PM 54.8885 -44.6412 237° Southwest  Level Estimated
Fri 01:26:00 PM 54.8266 -44.8045 237° Southwest  Level Estimated
Fri 01:27:00 PM 54.7644 -44.9673 237° Southwest  Level Estimated
Fri 01:28:00 PM 54.7020 -45.1296 236° Southwest  Level Estimated
Fri 01:29:00 PM 54.6394 -45.2914 236° Southwest  Level Estimated
Fri 01:30:00 PM 54.5766 -45.4528 236° Southwest  Level Estimated
Fri 01:31:00 PM 54.5136 -45.6136 236° Southwest  Level Estimated
Fri 01:32:00 PM 54.4503 -45.7739 236° Southwest  Level Estimated
Fri 01:33:00 PM 54.3869 -45.9337 236° Southwest  Level Estimated
Fri 01:34:00 PM 54.3232 -46.0930 236° Southwest  Level Estimated
Fri 01:35:00 PM 54.2593 -46.2518 235° Southwest  Level Estimated
Fri 01:36:00 PM 54.1952 -46.4102 235° Southwest  Level Estimated
Fri 01:37:00 PM 54.1309 -46.5680 235° Southwest  Level Estimated
Fri 01:38:00 PM 54.0664 -46.7254 235° Southwest  Level Estimated
Fri 01:39:00 PM 54.0017 -46.8823 235° Southwest  Level Estimated
Fri 01:40:00 PM 53.9368 -47.0386 235° Southwest  Level Estimated
Fri 01:41:00 PM 53.8717 -47.1945 235° Southwest  Level Estimated
Fri 01:42:00 PM 53.8064 -47.3499 235° Southwest  Level Estimated
Fri 01:43:00 PM 53.7409 -47.5049 234° Southwest  Level Estimated
Fri 01:44:00 PM 53.6752 -47.6593 234° Southwest  Level Estimated
Fri 01:45:00 PM 53.6093 -47.8133 234° Southwest  Level Estimated
Fri 01:46:00 PM 53.5432 -47.9667 234° Southwest  Level Estimated
Fri 01:47:00 PM 53.4769 -48.1197 234° Southwest  Level Estimated
Fri 01:48:00 PM 53.4104 -48.2723 234° Southwest  Level Estimated
Fri 01:49:00 PM 53.3437 -48.4243 234° Southwest  Level Estimated
Fri 01:50:00 PM 53.2768 -48.5759 234° Southwest  Level Estimated
Fri 01:51:00 PM 53.2097 -48.7270 233° Southwest  Level Estimated
Fri 01:52:00 PM 53.1424 -48.8776 233° Southwest  Level Estimated
Fri 01:53:00 PM 53.0750 -49.0277 233° Southwest  Level Estimated
Fri 01:54:00 PM 53.0074 -49.1774 233° Southwest  Level Estimated
Fri 01:55:00 PM 52.9395 -49.3266 233° Southwest  Level Estimated
Fri 01:56:00 PM 52.8715 -49.4754 233° Southwest  Level Estimated
Fri 01:57:00 PM 52.8033 -49.6236 233° Southwest  Level Estimated
Fri 01:58:00 PM 52.7349 -49.7715 233° Southwest  Level Estimated
Fri 01:59:00 PM 52.6664 -49.9188 233° Southwest  Level Estimated
Fri 02:00:00 PM 52.5976 -50.0657 232° Southwest  Level Estimated
Fri 02:01:00 PM 52.5287 -50.2121 232° Southwest  Level Estimated
Fri 02:02:00 PM 52.4596 -50.3581 232° Southwest  Level Estimated
Fri 02:03:00 PM 52.3903 -50.5036 232° Southwest  Level Estimated
Fri 02:04:00 PM 52.3208 -50.6487 232° Southwest  Level Estimated
Fri 02:05:00 PM 52.2511 -50.7933 232° Southwest  Level Estimated
Fri 02:06:00 PM 52.1813 -50.9374 232° Southwest  Level Estimated
Fri 02:07:00 PM 52.1113 -51.0811 232° Southwest  Level Estimated
Fri 02:08:00 PM 52.0412 -51.2243 231° Southwest  Level Estimated
Fri 02:09:00 PM 51.9708 -51.3671 231° Southwest  Level Estimated
Fri 02:10:00 PM 51.9003 -51.5094 231° Southwest  Level Estimated
Fri 02:11:00 PM 51.8296 -51.6513 231° Southwest  Level Estimated
Fri 02:12:00 PM 51.7587 -51.7928 231° Southwest  Level Estimated
Fri 02:13:00 PM 51.6877 -51.9338 231° Southwest  Level Estimated
Fri 02:14:00 PM 51.6165 -52.0743 231° Southwest  Level Estimated
Fri 02:15:00 PM 51.5452 -52.2145 231° Southwest  Level Estimated
Fri 02:16:00 PM 51.4736 -52.3541 231° Southwest  Level Estimated
Fri 02:17:00 PM 51.4019 -52.4934 230° Southwest  Level Estimated
Fri 02:18:00 PM 51.3301 -52.6322 230° Southwest  Level Estimated
Fri 02:19:00 PM 51.2580 -52.7706 230° Southwest  Level Estimated
Fri 02:20:00 PM 51.1858 -52.9085 230° Southwest  Level Estimated
Fri 02:21:00 PM 51.1135 -53.0460 230° Southwest  Level Estimated
Fri 02:22:00 PM 51.0410 -53.1831 230° Southwest  Level Estimated
Fri 02:23:00 PM 50.9683 -53.3198 230° Southwest  Level Estimated
Fri 02:24:00 PM 50.8955 -53.4560 230° Southwest  Level Estimated
Fri 02:25:00 PM 50.8225 -53.5918 230° Southwest  Level Estimated
Fri 02:26:00 PM 50.7494 -53.7271 230° Southwest  Level Estimated
Fri 02:27:00 PM 50.6761 -53.8621 229° Southwest  Level Estimated
Fri 02:28:00 PM 50.6026 -53.9966 229° Southwest  Level Estimated
Fri 02:29:00 PM 50.5290 -54.1307 229° Southwest  Level Estimated
Fri 02:30:00 PM 50.4552 -54.2644 229° Southwest  Level Estimated
Fri 02:31:00 PM 50.3813 -54.3977 229° Southwest  Level Estimated
Fri 02:32:00 PM 50.3073 -54.5305 229° Southwest  Level Estimated
Fri 02:33:00 PM 50.2330 -54.6630 229° Southwest  Level Estimated
Fri 02:34:00 PM 50.1587 -54.7950 229° Southwest  Level Estimated
Fri 02:35:00 PM 50.0841 -54.9266 229° Southwest  Level Estimated
Fri 02:36:00 PM 50.0095 -55.0578 229° Southwest  Level Estimated
Fri 02:37:00 PM 49.9347 -55.1886 228° Southwest  Level Estimated
Fri 02:38:00 PM 49.8597 -55.3190 228° Southwest  Level Estimated
Fri 02:39:00 PM 49.7846 -55.4490 228° Southwest  Level Estimated
Fri 02:40:00 PM 49.7094 -55.5786 228° Southwest  Level Estimated
Fri 02:41:00 PM 49.6340 -55.7078 228° Southwest  Level Estimated
Fri 02:42:00 PM 49.5584 -55.8366 228° Southwest  Level Estimated
Fri 02:43:00 PM 49.4827 -55.9650 228° Southwest  Level Estimated
Fri 02:44:00 PM 49.4069 -56.0930 228° Southwest  Level Estimated
Fri 02:45:00 PM 49.3310 -56.2206 228° Southwest  Level Estimated
Fri 02:46:00 PM 49.2549 -56.3478 228° Southwest  Level Estimated
Fri 02:47:00 PM 49.1786 -56.4746 227° Southwest  Level Estimated
Fri 02:48:00 PM 49.1022 -56.6010 227° Southwest  Level Estimated
Fri 02:49:00 PM 49.0257 -56.7271 227° Southwest  Level Estimated
Fri 02:50:00 PM 48.9491 -56.8527 227° Southwest  Level Estimated
Fri 02:51:00 PM 48.8723 -56.9780 227° Southwest  Level Estimated
Fri 02:52:00 PM 48.7953 -57.1029 227° Southwest  Level Estimated
Fri 02:53:00 PM 48.7183 -57.2274 227° Southwest  Level Estimated
Fri 02:54:00 PM 48.6411 -57.3515 227° Southwest  Level Estimated
Fri 02:55:00 PM 48.5638 -57.4752 227° Southwest  Level Estimated
Fri 02:56:00 PM 48.4863 -57.5986 227° Southwest  Level Estimated
Fri 02:57:00 PM 48.4087 -57.7215 226° Southwest  Level Estimated
Fri 02:58:00 PM 48.3310 -57.8442 226° Southwest  Level Estimated
Fri 02:59:00 PM 48.2532 -57.9664 226° Southwest  Level Estimated
Fri 03:00:00 PM 48.1752 -58.0882 226° Southwest  Level Estimated
Fri 03:01:00 PM 48.0971 -58.2097 226° Southwest  Level Estimated
Fri 03:02:00 PM 48.0188 -58.3308 226° Southwest  Level Estimated
Fri 03:03:00 PM 47.9405 -58.4516 226° Southwest  Level Estimated
Fri 03:04:00 PM 47.8620 -58.5720 226° Southwest  Level Estimated
Fri 03:05:00 PM 47.7834 -58.6920 226° Southwest  Level Estimated
Fri 03:06:00 PM 47.7046 -58.8117 226° Southwest  Level Estimated
Fri 03:07:00 PM 47.6258 -58.9310 226° Southwest  Level Estimated
Fri 03:08:00 PM 47.5468 -59.0499 225° Southwest  Level Estimated
Fri 03:09:00 PM 47.4677 -59.1685 225° Southwest  Level Estimated
Fri 03:10:00 PM 47.3884 -59.2867 225° Southwest  Level Estimated
Fri 03:11:00 PM 47.3091 -59.4046 225° Southwest  Level Estimated
Fri 03:12:00 PM 47.2296 -59.5221 225° Southwest  Level Estimated
Fri 03:13:00 PM 47.1500 -59.6393 225° Southwest  Level Estimated
Fri 03:14:00 PM 47.0703 -59.7561 225° Southwest  Level Estimated
Fri 03:15:00 PM 46.9905 -59.8725 225° Southwest  Level Estimated
Fri 03:16:00 PM 46.9105 -59.9887 225° Southwest  Level Estimated
Fri 03:17:00 PM 46.8305 -60.1044 225° Southwest  Level Estimated
Fri 03:18:00 PM 46.7503 -60.2198 225° Southwest  Level Estimated
Fri 03:19:00 PM 46.6700 -60.3349 225° Southwest  Level Estimated
Fri 03:20:00 PM 46.5896 -60.4497 224° Southwest  Level Estimated
Fri 03:21:00 PM 46.5090 -60.5641 224° Southwest  Level Estimated
Fri 03:22:00 PM 46.4284 -60.6781 224° Southwest  Level Estimated
Fri 03:23:00 PM 46.3476 -60.7918 224° Southwest  Level Estimated
Fri 03:24:00 PM 46.2668 -60.9052 224° Southwest  Level Estimated
Fri 03:25:00 PM 46.1858 -61.0183 224° Southwest  Level Estimated
Fri 03:26:00 PM 46.1047 -61.1310 224° Southwest  Level Estimated
Fri 03:27:00 PM 46.0235 -61.2434 224° Southwest  Level Estimated
Fri 03:28:00 PM 45.9422 -61.3554 224° Southwest  Level Estimated
Fri 03:29:00 PM 45.8608 -61.4672 224° Southwest  Level Estimated
Fri 03:30:00 PM 45.7793 -61.5786 224° Southwest  Level Estimated
Fri 03:31:00 PM 45.6976 -61.6897 224° Southwest  Level Estimated
Fri 03:32:00 PM 45.6159 -61.8004 223° Southwest  Level Estimated
Fri 03:33:00 PM 45.5340 -61.9108 223° Southwest  Level Estimated
Fri 03:34:00 PM 45.4521 -62.0210 223° Southwest  Level Estimated
Fri 03:35:00 PM 45.3700 -62.1307 223° Southwest  Level Estimated
Fri 03:36:00 PM 45.2878 -62.2402 223° Southwest  Level Estimated
Fri 03:37:00 PM 45.2056 -62.3494 223° Southwest  Level Estimated
Fri 03:38:00 PM 45.1232 -62.4582 223° Southwest  Level Estimated
Fri 03:39:00 PM 45.0407 -62.5667 223° Southwest  Level Estimated
Fri 03:40:00 PM 44.9581 -62.6749 223° Southwest  Level Estimated
Fri 03:41:00 PM 44.8755 -62.7828 223° Southwest  Level Estimated
Fri 03:42:00 PM 44.7927 -62.8904 223° Southwest  Level Estimated
Fri 03:43:00 PM 44.7098 -62.9977 223° Southwest  Level Estimated
Fri 03:44:00 PM 44.6268 -63.1047 223° Southwest  Level Estimated
Fri 03:45:00 PM 44.5438 -63.2114 222° Southwest  Level Estimated
Fri 03:46:00 PM 44.4606 -63.3177 222° Southwest  Level Estimated
Fri 03:47:00 PM 44.3773 -63.4238 222° Southwest  Level Estimated
Fri 03:48:00 PM 44.2939 -63.5296 222° Southwest  Level Estimated
Fri 03:49:00 PM 44.2104 -63.6350 222° Southwest  Level Estimated
Fri 03:50:00 PM 44.1269 -63.7402 222° Southwest  Level Estimated
Fri 03:51:00 PM 44.0432 -63.8451 222° Southwest  Level Estimated
Fri 03:52:00 PM 43.9594 -63.9496 222° Southwest  Level Estimated
Fri 03:53:00 PM 43.8756 -64.0539 222° Southwest  Level Estimated
Fri 03:54:00 PM 43.7916 -64.1579 222° Southwest  Level Estimated
Fri 03:55:00 PM 43.7076 -64.2616 222° Southwest  Level Estimated
Fri 03:56:00 PM 43.6234 -64.3650 222° Southwest  Level Estimated
Fri 03:57:00 PM 43.5392 -64.4681 222° Southwest  Level Estimated
Fri 03:58:00 PM 43.4549 -64.5709 222° Southwest  Level Estimated
Fri 03:59:00 PM 43.3705 -64.6734 221° Southwest  Level Estimated
Fri 04:00:00 PM 43.2859 -64.7757 221° Southwest  Level Estimated
Fri 04:01:00 PM 43.2014 -64.8777 221° Southwest  Level Estimated
Fri 04:02:00 PM 43.1167 -64.9793 221° Southwest  Level Estimated
Fri 04:03:00 PM 43.0319 -65.0807 221° Southwest  Level Estimated
Fri 04:04:00 PM 42.9470 -65.1819 221° Southwest  Level Estimated
Fri 04:05:00 PM 42.8620 -65.2827 221° Southwest  Level Estimated
Fri 04:06:00 PM 42.7770 -65.3833 221° Southwest  Level Estimated
Fri 04:07:00 PM 42.6919 -65.4836 221° Southwest  Level Estimated
Fri 04:08:00 PM 42.6067 -65.5836 221° Southwest  Level Estimated
Fri 04:09:00 PM 42.5213 -65.6833 221° Southwest  Level Estimated
Fri 04:10:00 PM 42.4360 -65.7828 221° Southwest  Level Estimated
Fri 04:11:00 PM 42.3505 -65.8820 221° Southwest  Level Estimated
Fri 04:12:00 PM 42.2649 -65.9809 221° Southwest  Level Estimated
Fri 04:13:00 PM 42.1792 -66.0796 220° Southwest  Level Estimated
Fri 04:14:00 PM 42.0935 -66.1780 220° Southwest  Level Estimated
Fri 04:15:00 PM 42.0077 -66.2761 220° Southwest  Level Estimated
Fri 04:16:00 PM 41.9218 -66.3740 220° Southwest  Level Estimated
Fri 04:17:00 PM 41.8358 -66.4716 220° Southwest  Level Estimated
Fri 04:18:00 PM 41.7497 -66.5689 220° Southwest  Level Estimated
Fri 04:19:00 PM 41.6636 -66.6660 220° Southwest  Level Estimated
Fri 04:20:00 PM 41.5774 -66.7628 220° Southwest  Level Estimated
Fri 04:21:00 PM 41.4911 -66.8594 220° Southwest  Level Estimated
Fri 04:22:00 PM 41.4047 -66.9557 220° Southwest  Level Estimated
Fri 04:23:00 PM 41.3182 -67.0518 220° Southwest  Level Estimated
Fri 04:24:00 PM 41.2317 -67.1476 220° Southwest  Level Estimated
Fri 04:25:00 PM 41.1450 -67.2431 220° Southwest  Level Estimated
Fri 04:26:00 PM 41.0583 -67.3384 220° Southwest  Level Estimated
Fri 04:27:00 PM 40.9715 -67.4334 220° Southwest  Level Estimated
Fri 04:28:00 PM 40.8847 -67.5282 220° Southwest  Level Estimated
Fri 04:29:00 PM 40.7977 -67.6227 219° Southwest  Level Estimated
Fri 04:30:00 PM 40.7107 -67.7170 219° Southwest  Level Estimated
Fri 04:31:00 PM 40.6236 -67.8111 219° Southwest  Level Estimated
Fri 04:32:00 PM 40.5364 -67.9049 219° Southwest  Level Estimated
Fri 04:33:00 PM 40.4492 -67.9985 219° Southwest  Level Estimated
Fri 04:34:00 PM 40.3619 -68.0918 219° Southwest  Level Estimated
Fri 04:35:00 PM 40.2744 -68.1848 219° Southwest  Level Estimated
Fri 04:36:00 PM 40.1870 -68.2777 219° Southwest  Level Estimated
Fri 04:37:00 PM 40.0994 -68.3702 219° Southwest  Level Estimated
Fri 04:38:00 PM 40.0118 -68.4626 219° Southwest  Level Estimated
Fri 04:39:00 PM 39.9241 -68.5547 219° Southwest  Level Estimated
Fri 04:40:00 PM 39.8363 -68.6466 219° Southwest  Level Estimated
Fri 04:41:00 PM 39.7485 -68.7383 219° Southwest  Level Estimated
Fri 04:42:00 PM 39.6606 -68.8297 219° Southwest  Level Estimated
Fri 04:43:00 PM 39.5726 -68.9209 219° Southwest  Level Estimated
Fri 04:44:00 PM 39.4846 -69.0118 219° Southwest  Level Estimated
Fri 04:45:00 PM 39.3965 -69.1025 219° Southwest  Level Estimated
Fri 04:46:00 PM 39.3083 -69.1930 218° Southwest  Level Estimated
Fri 04:47:00 PM 39.2200 -69.2833 218° Southwest  Level Estimated
Fri 04:48:00 PM 39.1317 -69.3733 218° Southwest  Level Estimated
Fri 04:49:00 PM 39.0433 -69.4631 218° Southwest  Level Estimated
Fri 04:50:00 PM 38.9548 -69.5527 218° Southwest  Level Estimated
Fri 04:51:00 PM 38.8663 -69.6421 218° Southwest  Level Estimated
Fri 04:52:00 PM 38.7776 -69.7312 218° Southwest  Level Estimated
Fri 04:53:00 PM 38.6890 -69.8201 218° Southwest  Level Estimated
Fri 04:54:00 PM 38.6002 -69.9088 218° Southwest  Level Estimated
Fri 04:55:00 PM 38.5114 -69.9973 218° Southwest  Level Estimated
Fri 04:56:00 PM 38.4226 -70.0856 218° Southwest  Level Estimated
Fri 04:57:00 PM 38.3336 -70.1736 218° Southwest  Level Estimated
Fri 04:58:00 PM 38.2446 -70.2615 218° Southwest  Level Estimated
Fri 04:59:00 PM 38.1555 -70.3491 218° Southwest  Level Estimated
Fri 05:00:00 PM 38.0664 -70.4365 218° Southwest  Level Estimated
Fri 05:01:00 PM 37.9772 -70.5237 218° Southwest  Level Estimated
Fri 05:02:00 PM 37.8879 -70.6106 218° Southwest  Level Estimated
Fri 05:03:00 PM 37.7986 -70.6974 218° Southwest  Level Estimated
Fri 05:04:00 PM 37.7092 -70.7840 217° Southwest  Level Estimated
Fri 05:05:00 PM 37.6197 -70.8703 217° Southwest  Level Estimated
Fri 05:06:00 PM 37.5302 -70.9565 217° Southwest  Level Estimated
Fri 05:07:00 PM 37.4406 -71.0424 217° Southwest  Level Estimated
Fri 05:08:00 PM 37.3510 -71.1281 217° Southwest  Level Estimated
Fri 05:09:00 PM 37.2613 -71.2136 217° Southwest  Level Estimated
Fri 05:10:00 PM 37.1715 -71.2990 217° Southwest  Level Estimated
Fri 05:11:00 PM 37.0817 -71.3841 217° Southwest  Level Estimated
Fri 05:12:00 PM 36.9918 -71.4690 217° Southwest  Level Estimated
Fri 05:13:00 PM 36.9019 -71.5537 217° Southwest  Level Estimated
Fri 05:14:00 PM 36.8118 -71.6382 217° Southwest  Level Estimated
Fri 05:15:00 PM 36.7218 -71.7225 217° Southwest  Level Estimated
Fri 05:16:00 PM 36.6316 -71.8066 217° Southwest  Level Estimated
Fri 05:17:00 PM 36.5415 -71.8906 217° Southwest  Level Estimated
Fri 05:18:00 PM 36.4512 -71.9743 217° Southwest  Level Estimated
Fri 05:19:00 PM 36.3609 -72.0578 217° Southwest  Level Estimated
Fri 05:20:00 PM 36.2705 -72.1412 217° Southwest  Level Estimated
Fri 05:21:00 PM 36.1801 -72.2243 217° Southwest  Level Estimated
Fri 05:22:00 PM 36.0896 -72.3073 217° Southwest  Level Estimated
Fri 05:23:00 PM 35.9991 -72.3900 216° Southwest  Level Estimated
Fri 05:24:00 PM 35.9085 -72.4726 216° Southwest  Level Estimated
Fri 05:25:00 PM 35.8179 -72.5550 216° Southwest  Level Estimated
Fri 05:26:00 PM 35.7272 -72.6372 216° Southwest  Level Estimated
Fri 05:27:00 PM 35.6364 -72.7192 216° Southwest  Level Estimated
Fri 05:28:00 PM 35.5456 -72.8010 216° Southwest  Level Estimated
Fri 05:29:00 PM 35.4547 -72.8826 216° Southwest  Level Estimated
Fri 05:30:00 PM 35.3638 -72.9641 216° Southwest  Level Estimated
Fri 05:31:00 PM 35.2728 -73.0454 216° Southwest  Level Estimated
Fri 05:32:00 PM 35.1818 -73.1264 216° Southwest  Level Estimated
Fri 05:33:00 PM 35.0907 -73.2074 216° Southwest  Level Estimated
Fri 05:34:00 PM 34.9996 -73.2881 216° Southwest  Level Estimated
Fri 05:35:00 PM 34.9084 -73.3686 216° Southwest  Level Estimated
Fri 05:36:00 PM 34.8171 -73.4490 216° Southwest  Level Estimated
Fri 05:37:00 PM 34.7258 -73.5292 216° Southwest  Level Estimated
Fri 05:38:00 PM 34.6345 -73.6092 216° Southwest  Level Estimated
Fri 05:39:00 PM 34.5431 -73.6890 216° Southwest  Level Estimated
Fri 05:40:00 PM 34.4516 -73.7687 216° Southwest  Level Estimated
Fri 05:41:00 PM 34.3601 -73.8482 216° Southwest  Level Estimated
Fri 05:42:00 PM 34.2686 -73.9275 216° Southwest  Level Estimated
Fri 05:43:00 PM 34.1769 -74.0067 216° Southwest  Level Estimated
Fri 05:44:00 PM 34.0853 -74.0856 216° Southwest  Level Estimated
Fri 05:45:00 PM 33.9936 -74.1644 215° Southwest  Level Estimated
Fri 05:46:00 PM 33.9018 -74.2430 215° Southwest  Level Estimated
Fri 05:47:00 PM 33.8100 -74.3215 215° Southwest  Level Estimated
Fri 05:48:00 PM 33.7181 -74.3998 215° Southwest  Level Estimated
Fri 05:49:00 PM 33.6262 -74.4779 215° Southwest  Level Estimated
Fri 05:50:00 PM 33.5343 -74.5559 215° Southwest  Level Estimated
Fri 05:51:00 PM 33.4423 -74.6337 215° Southwest  Level Estimated
Fri 05:52:00 PM 33.3502 -74.7113 215° Southwest  Level Estimated
Fri 05:53:00 PM 33.2581 -74.7888 215° Southwest  Level Estimated
Fri 05:54:00 PM 33.1660 -74.8661 215° Southwest  Level Estimated
Fri 05:55:00 PM 33.0737 -74.9432 215° Southwest  Level Estimated
Fri 05:56:00 PM 32.9815 -75.0202 215° Southwest  Level Estimated
Fri 05:57:00 PM 32.8892 -75.0970 215° Southwest  Level Estimated
Fri 05:58:00 PM 32.7969 -75.1736 215° Southwest  Level Estimated
Fri 05:59:00 PM 32.7045 -75.2501 215° Southwest  Level Estimated
Fri 06:00:00 PM 32.6120 -75.3265 215° Southwest  Level Estimated
Fri 06:01:00 PM 32.5196 -75.4027 215° Southwest  Level Estimated
Fri 06:02:00 PM 32.4270 -75.4787 215° Southwest  Level Estimated
Fri 06:03:00 PM 32.3345 -75.5546 215° Southwest  Level Estimated
Fri 06:04:00 PM 32.2419 -75.6303 215° Southwest  Level Estimated
Fri 06:05:00 PM 32.1492 -75.7058 215° Southwest  Level Estimated
Fri 06:06:00 PM 32.0565 -75.7812 215° Southwest  Level Estimated
Fri 06:07:00 PM 31.9637 -75.8565 215° Southwest  Level Estimated
Fri 06:08:00 PM 31.8709 -75.9316 215° Southwest  Level Estimated
Fri 06:09:00 PM 31.7781 -76.0065 214° Southwest  Level Estimated
Fri 06:10:00 PM 31.6852 -76.0813 214° Southwest  Level Estimated
Fri 06:11:00 PM 31.5923 -76.1560 214° Southwest  Level Estimated
Fri 06:12:00 PM 31.4993 -76.2305 214° Southwest  Level Estimated
Fri 06:13:00 PM 31.4063 -76.3048 214° Southwest  Level Estimated
Fri 06:14:00 PM 31.3132 -76.3790 214° Southwest  Level Estimated
Fri 06:15:00 PM 31.2201 -76.4531 214° Southwest  Level Estimated
Fri 06:16:00 PM 31.1270 -76.5270 214° Southwest  Level Estimated
Fri 06:17:00 PM 31.0338 -76.6008 214° Southwest  Level Estimated
Fri 06:18:00 PM 30.9406 -76.6744 214° Southwest  Level Estimated
Fri 06:19:00 PM 30.8473 -76.7479 214° Southwest  Level Estimated
Fri 06:20:00 PM 30.7540 -76.8212 214° Southwest  Level Estimated
Fri 06:21:00 PM 30.6607 -76.8944 214° Southwest  Level Estimated
Fri 06:22:00 PM 30.5673 -76.9674 214° Southwest  Level Estimated
Fri 06:23:00 PM 30.4739 -77.0404 214° Southwest  Level Estimated
Fri 06:24:00 PM 30.3804 -77.1131 214° Southwest  Level Estimated
Fri 06:25:00 PM 30.2869 -77.1858 214° Southwest  Level Estimated
Fri 06:26:00 PM 30.1933 -77.2582 214° Southwest  Level Estimated
Fri 06:27:00 PM 30.0997 -77.3306 214° Southwest  Level Estimated
Fri 06:28:00 PM 30.0061 -77.4028 214° Southwest  Level Estimated
Fri 06:29:00 PM 29.9124 -77.4749 214° Southwest  Level Estimated
Fri 06:30:00 PM 29.8187 -77.5469 214° Southwest  Level Estimated
Fri 06:31:00 PM 29.7250 -77.6187 214° Southwest  Level Estimated
Fri 06:32:00 PM 29.6312 -77.6904 214° Southwest  Level Estimated
Fri 06:33:00 PM 29.5373 -77.7619 214° Southwest  Level Estimated
Fri 06:34:00 PM 29.4435 -77.8333 214° Southwest  Level Estimated
Fri 06:35:00 PM 29.3496 -77.9046 213° Southwest  Level Estimated
Fri 06:36:00 PM 29.2556 -77.9757 213° Southwest  Level Estimated
Fri 06:37:00 PM 29.1617 -78.0468 213° Southwest  Level Estimated
Fri 06:38:00 PM 29.0677 -78.1177 213° Southwest  Level Estimated
Fri 06:39:00 PM 28.9736 -78.1884 213° Southwest  Level Estimated
Fri 06:40:00 PM 28.8795 -78.2590 213° Southwest  Level Estimated
Fri 06:41:00 PM 28.7854 -78.3296 213° Southwest  Level Estimated
Fri 06:42:00 PM 28.6912 -78.3999 213° Southwest  Level Estimated
Fri 06:43:00 PM 28.5970 -78.4702 213° Southwest  Level Estimated
Fri 06:44:00 PM 28.5028 -78.5403 213° Southwest  Level Estimated
Fri 06:45:00 PM 28.4085 -78.6103 213° Southwest  Level Estimated
Fri 06:46:00 PM 28.3142 -78.6802 213° Southwest  Level Estimated
Fri 06:47:00 PM 28.2199 -78.7499 213° Southwest  Level Estimated
Fri 06:48:00 PM 28.1255 -78.8196 213° Southwest  Level Estimated
Fri 06:49:00 PM 28.0311 -78.8891 213° Southwest  Level Estimated
Fri 06:50:00 PM 27.9366 -78.9585 213° Southwest  Level Estimated
Fri 06:51:00 PM 27.8422 -79.0277 213° Southwest  Level Estimated
Fri 06:52:00 PM 27.7476 -79.0969 213° Southwest  Level Estimated
Fri 06:53:00 PM 27.6531 -79.1659 213° Southwest  Level Estimated
Fri 06:54:00 PM 27.5585 -79.2348 213° Southwest  Level Estimated
Fri 06:55:00 PM 27.4639 -79.3036 213° Southwest  Level Estimated
Fri 06:56:00 PM 27.3692 -79.3722 213° Southwest  Level Estimated
Fri 06:57:00 PM 27.2745 -79.4408 213° Southwest  Level Estimated
Fri 06:58:00 PM 27.1798 -79.5092 213° Southwest  Level Estimated
Fri 06:59:00 PM 27.0851 -79.5775 213° Southwest  Level Estimated
Fri 07:00:00 PM 26.9903 -79.6457 213° Southwest  Level Estimated
Fri 07:01:00 PM 26.8955 -79.7138 213° Southwest  Level Estimated
Fri 07:02:00 PM 26.8006 -79.7818 213° Southwest  Level Estimated
Fri 07:03:00 PM 26.7057 -79.8497 213° Southwest  Level Estimated
Fri 07:04:00 PM 26.6108 -79.9174 213° Southwest  Level Estimated
Fri 07:05:00 PM 26.5159 -79.9850 213° Southwest  Level Estimated
Fri 07:06:00 PM 26.4209 -80.0526 212° Southwest  Level Estimated
Fri 07:07:00 PM 26.3259 -80.1200 212° Southwest  Level Estimated
Fri 07:08:00 PM 26.2309 -80.1873 212° Southwest  Level Estimated
Fri 07:09:00 PM 26.1358 -80.2545 212° Southwest  Level Estimated
Fri 07:10:00 PM 26.0407 -80.3215 212° Southwest  Level Estimated
Fri 07:11:00 PM 25.9456 -80.3885 212° Southwest  Level Estimated
Fri 07:12:00 PM 25.8504 -80.4554 212° Southwest  Level Estimated
Fri 07:13:00 PM 25.7552 -80.5221 212° Southwest  Level Estimated
Fri 07:14:00 PM 25.6600 -80.5888 212° Southwest  Level Estimated
Fri 07:15:00 PM 25.5647 -80.6553 212° Southwest  Level Estimated
Fri 07:16:00 PM 25.4694 -80.7218 212° Southwest  Level Estimated
Fri 07:17:00 PM 25.3741 -80.7881 212° Southwest  Level Estimated
Fri 07:18:00 PM 25.2787 -80.8543 212° Southwest  Level Estimated
Fri 07:19:00 PM 25.1833 -80.9204 212° Southwest  Level Estimated
Fri 07:20:00 PM 25.0879 -80.9865 212° Southwest  Level Estimated
Fri 07:21:00 PM 24.9925 -81.0524 212° Southwest  Level Estimated
Fri 07:22:00 PM 24.8971 -81.1182 212° Southwest  Level Estimated
Fri 07:23:00 PM 24.8016 -81.1839 212° Southwest  Level Estimated
Fri 07:24:00 PM 24.7060 -81.2495 212° Southwest  Level Estimated
Fri 07:25:00 PM 24.6105 -81.3150 212° Southwest  Level Estimated
Fri 07:26:00 PM 24.5149 -81.3804 212° Southwest  Level Estimated
Fri 07:27:00 PM 24.4193 -81.4457 212° Southwest  Level Estimated
Fri 07:28:00 PM 24.3237 -81.5110 212° Southwest  Level Estimated
Fri 07:29:00 PM 24.2280 -81.5761 212° Southwest  Level Estimated
Fri 07:30:00 PM 24.1323 -81.6411 212° Southwest  Level Estimated
Fri 07:31:00 PM 24.0366 -81.7060 212° Southwest  Level Estimated
Fri 07:32:00 PM 23.9409 -81.7708 212° Southwest  Level Estimated
Fri 07:33:00 PM 23.8451 -81.8356 212° Southwest  Level Estimated
Fri 07:34:00 PM 23.7493 -81.9002 212° Southwest  Level Estimated
Fri 07:35:00 PM 23.6535 -81.9647 212° Southwest  Level Estimated
Fri 07:36:00 PM 23.5576 -82.0292 212° Southwest  Level Estimated
Fri 07:37:00 PM 23.4617 -82.0935 212° Southwest  Level Estimated
Fri 07:38:00 PM 23.3658 -82.1578 212° Southwest  Level Estimated
Fri 07:39:00 PM 23.2699 -82.2219 212° Southwest  Level Estimated
Fri 07:40:00 PM 23.1739 -82.2860 212° Southwest  Level Estimated

Login

Don't have an account? Register now (free) for customized features, flight alerts, and more!